Time;durP1;ratioP1;P1;durP2;ratioP2;P2;SDS_P1;SDS_P2;PMS_P1;PMS_P2;Temp;Humidity;BMP_temperature;BMP_pressure;BME280_temperature;BME280_humidity;BME280_pressure;Samples;Min_cycle;Max_cycle;Signal;HPM_P1;HPM_P2
2023/09/29 00:01:59;;;;;;;1999.90;999.90;;;;;;;;;;4986148;28;20216;-66
2023/09/29 00:04:28;;;;;;;1999.90;999.90;;;;;;;;;;4985028;28;20295;-69
2023/09/29 00:06:56;;;;;;;1999.90;999.90;;;;;;;;;;4987520;28;20217;-60
2023/09/29 00:09:23;;;;;;;1999.90;999.90;;;;;;;;;;4984911;28;20198;-64
2023/09/29 00:11:51;;;;;;;1999.90;999.90;;;;;;;;;;4987606;28;20299;-64
2023/09/29 00:14:19;;;;;;;1999.90;999.90;;;;;;;;;;4986598;28;20186;-64
2023/09/29 00:16:47;;;;;;;1999.90;999.90;;;;;;;;;;4987192;28;20213;-65
2023/09/29 00:19:15;;;;;;;1999.90;999.90;;;;;;;;;;4986480;28;20207;-66
2023/09/29 00:21:43;;;;;;;1999.90;999.90;;;;;;;;;;4986637;28;20201;-60
2023/09/29 00:24:11;;;;;;;1999.90;999.90;;;;;;;;;;4987632;28;20217;-63
2023/09/29 00:26:38;;;;;;;1999.90;999.90;;;;;;;;;;4986297;28;20265;-67
2023/09/29 00:29:05;;;;;;;1999.90;999.90;;;;;;;;;;4987166;28;20193;-61
2023/09/29 00:31:33;;;;;;;1999.90;999.90;;;;;;;;;;4986287;28;20221;-60
2023/09/29 00:34:01;;;;;;;1999.90;999.90;;;;;;;;;;4986922;28;20267;-61
2023/09/29 00:36:28;;;;;;;1999.90;999.90;;;;;;;;;;4986294;28;20205;-64
2023/09/29 00:38:57;;;;;;;1999.90;999.90;;;;;;;;;;4985972;28;20193;-65
2023/09/29 00:41:24;;;;;;;1999.90;999.90;;;;;;;;;;4986665;28;20645;-59
2023/09/29 00:43:51;;;;;;;1999.90;999.90;;;;;;;;;;4986508;28;20208;-60
2023/09/29 00:46:19;;;;;;;1999.90;999.90;;;;;;;;;;4986469;28;20297;-62
2023/09/29 00:48:49;;;;;;;1999.90;999.90;;;;;;;;;;4986074;28;20717;-60
2023/09/29 00:51:21;;;;;;;1999.90;999.90;;;;;;;;;;4986012;28;20232;-61
2023/09/29 00:53:49;;;;;;;1999.90;999.90;;;;;;;;;;4986296;28;20201;-62
2023/09/29 00:56:18;;;;;;;1999.90;999.90;;;;;;;;;;4985804;28;20210;-60
2023/09/29 00:58:45;;;;;;;1999.90;999.90;;;;;;;;;;4986470;28;20204;-60
2023/09/29 01:01:13;;;;;;;1999.90;999.90;;;;;;;;;;4986219;28;20731;-60
2023/09/29 01:03:40;;;;;;;1999.90;999.90;;;;;;;;;;4986229;28;20657;-63
2023/09/29 01:06:08;;;;;;;1999.90;999.90;;;;;;;;;;4985915;28;20210;-62
2023/09/29 01:08:39;;;;;;;1999.90;999.90;;;;;;;;;;4985971;28;20203;-66
2023/09/29 01:11:09;;;;;;;1999.90;999.90;;;;;;;;;;4986482;28;20308;-63
2023/09/29 01:13:40;;;;;;;1999.90;999.90;;;;;;;;;;4985845;28;20207;-60
2023/09/29 01:16:08;;;;;;;1999.90;999.90;;;;;;;;;;4986751;28;20644;-64
2023/09/29 01:18:36;;;;;;;1999.90;999.90;;;;;;;;;;4985215;28;20194;-61
2023/09/29 01:21:05;;;;;;;1999.90;999.90;;;;;;;;;;4986291;28;20346;-61
2023/09/29 01:23:34;;;;;;;1999.90;999.90;;;;;;;;;;4985661;28;20197;-67
2023/09/29 01:26:03;;;;;;;1999.90;999.90;;;;;;;;;;4986360;28;20196;-65
2023/09/29 01:28:30;;;;;;;1999.90;999.90;;;;;;;;;;4985833;28;20751;-64
2023/09/29 01:30:58;;;;;;;1999.90;999.90;;;;;;;;;;4985379;28;20244;-64
2023/09/29 01:33:25;;;;;;;1999.90;999.90;;;;;;;;;;4986208;28;20193;-60
2023/09/29 01:35:52;;;;;;;1999.90;999.90;;;;;;;;;;4984782;28;20213;-64
2023/09/29 01:38:21;;;;;;;1999.90;999.90;;;;;;;;;;4986534;28;20197;-63
2023/09/29 01:40:51;;;;;;;1999.90;999.90;;;;;;;;;;4986201;28;20301;-60
2023/09/29 01:43:22;;;;;;;1999.90;999.90;;;;;;;;;;4986369;28;20182;-63
2023/09/29 01:45:49;;;;;;;1999.90;999.90;;;;;;;;;;4986228;28;20261;-65
2023/09/29 01:48:16;;;;;;;1999.90;999.90;;;;;;;;;;4985564;28;20248;-60
2023/09/29 01:50:44;;;;;;;1999.90;999.90;;;;;;;;;;4986407;28;20587;-68
2023/09/29 01:53:12;;;;;;;1999.90;999.90;;;;;;;;;;4985658;28;20191;-60
2023/09/29 01:55:39;;;;;;;1999.90;999.90;;;;;;;;;;4985282;28;20201;-65
2023/09/29 01:58:08;;;;;;;1999.90;999.90;;;;;;;;;;4985972;28;20684;-65
2023/09/29 02:00:38;;;;;;;1999.90;999.90;;;;;;;;;;4985693;28;20203;-60
2023/09/29 02:03:06;;;;;;;1999.90;999.90;;;;;;;;;;4984699;28;20642;-60
2023/09/29 02:05:34;;;;;;;1999.90;999.90;;;;;;;;;;4986082;28;20206;-60
2023/09/29 02:08:05;;;;;;;1999.90;999.90;;;;;;;;;;4989751;28;20198;-61
2023/09/29 02:10:32;;;;;;;1999.90;999.90;;;;;;;;;;4986967;28;20198;-60
2023/09/29 02:13:03;;;;;;;1999.90;999.90;;;;;;;;;;4989477;28;20213;-60
2023/09/29 02:15:34;;;;;;;1999.90;999.90;;;;;;;;;;4988531;28;20537;-59
2023/09/29 02:18:01;;;;;;;1999.90;999.90;;;;;;;;;;4989163;28;20182;-59
2023/09/29 02:20:29;;;;;;;1999.90;999.90;;;;;;;;;;4988641;28;20201;-60
2023/09/29 02:22:57;;;;;;;1999.90;999.90;;;;;;;;;;4989135;28;20201;-60
2023/09/29 02:25:25;;;;;;;1999.90;999.90;;;;;;;;;;4988928;28;20198;-59
2023/09/29 02:27:54;;;;;;;1999.90;999.90;;;;;;;;;;4988942;28;20556;-59
2023/09/29 02:30:21;;;;;;;1999.90;999.90;;;;;;;;;;4989553;28;20667;-63
2023/09/29 02:32:52;;;;;;;1999.90;999.90;;;;;;;;;;4988527;28;20284;-66
2023/09/29 02:35:19;;;;;;;1999.90;999.90;;;;;;;;;;4987029;28;20254;-62
2023/09/29 02:37:47;;;;;;;1999.90;999.90;;;;;;;;;;4988357;28;20198;-67
2023/09/29 02:40:15;;;;;;;1999.90;999.90;;;;;;;;;;4988453;28;20256;-61
2023/09/29 02:42:42;;;;;;;1999.90;999.90;;;;;;;;;;4988630;28;20228;-67
2023/09/29 02:45:10;;;;;;;1999.90;999.90;;;;;;;;;;4986529;28;20573;-63
2023/09/29 02:47:39;;;;;;;1999.90;999.90;;;;;;;;;;4986837;28;20697;-61
2023/09/29 02:50:09;;;;;;;1999.90;999.90;;;;;;;;;;4988622;28;20201;-61
2023/09/29 02:52:37;;;;;;;1999.90;999.90;;;;;;;;;;4986772;28;20696;-62
2023/09/29 02:55:05;;;;;;;1999.90;999.90;;;;;;;;;;4988189;28;20245;-65
2023/09/29 02:57:33;;;;;;;1999.90;999.90;;;;;;;;;;4987598;28;20700;-63
2023/09/29 03:00:06;;;;;;;1999.90;999.90;;;;;;;;;;4988774;28;20197;-61
2023/09/29 03:02:34;;;;;;;1999.90;999.90;;;;;;;;;;4987631;28;20646;-60
2023/09/29 03:05:01;;;;;;;1999.90;999.90;;;;;;;;;;4988386;28;20194;-64
2023/09/29 03:07:33;;;;;;;1999.90;999.90;;;;;;;;;;4988054;28;20198;-68
2023/09/29 03:10:01;;;;;;;1999.90;999.90;;;;;;;;;;4988538;28;20486;-64
2023/09/29 03:12:28;;;;;;;1999.90;999.90;;;;;;;;;;4988105;28;20229;-66
2023/09/29 03:14:56;;;;;;;1999.90;999.90;;;;;;;;;;4987168;28;20202;-66
2023/09/29 03:17:23;;;;;;;1999.90;999.90;;;;;;;;;;4988131;28;20197;-67
2023/09/29 03:19:52;;;;;;;1999.90;999.90;;;;;;;;;;4986006;28;20534;-64
2023/09/29 03:22:19;;;;;;;1999.90;999.90;;;;;;;;;;4988242;28;20225;-64
2023/09/29 03:24:47;;;;;;;1999.90;999.90;;;;;;;;;;4987243;28;20205;-64
2023/09/29 03:27:17;;;;;;;1999.90;999.90;;;;;;;;;;4987535;28;20684;-62
2023/09/29 03:29:44;;;;;;;1999.90;999.90;;;;;;;;;;4985908;28;20293;-66
2023/09/29 03:32:12;;;;;;;1999.90;999.90;;;;;;;;;;4987477;28;20237;-62
2023/09/29 03:34:39;;;;;;;1999.90;999.90;;;;;;;;;;4987134;28;21005;-66
2023/09/29 03:37:06;;;;;;;1999.90;999.90;;;;;;;;;;4987718;28;20209;-60
2023/09/29 03:39:35;;;;;;;1999.90;999.90;;;;;;;;;;4986507;28;20200;-61
2023/09/29 03:42:03;;;;;;;1999.90;999.90;;;;;;;;;;4987315;28;20197;-60
2023/09/29 03:44:31;;;;;;;1999.90;999.90;;;;;;;;;;4986357;28;20189;-60
2023/09/29 03:46:58;;;;;;;1999.90;999.90;;;;;;;;;;4983549;28;20565;-64
2023/09/29 03:49:25;;;;;;;1999.90;999.90;;;;;;;;;;4987105;28;20234;-60
2023/09/29 03:51:52;;;;;;;1999.90;999.90;;;;;;;;;;4987518;28;20221;-61
2023/09/29 03:54:20;;;;;;;1999.90;999.90;;;;;;;;;;4986512;28;20220;-63
2023/09/29 03:56:47;;;;;;;1999.90;999.90;;;;;;;;;;4987184;28;20194;-60
2023/09/29 03:59:16;;;;;;;1999.90;999.90;;;;;;;;;;4987076;28;20202;-61
2023/09/29 04:01:44;;;;;;;1999.90;999.90;;;;;;;;;;4986768;28;20203;-61
2023/09/29 04:04:11;;;;;;;1999.90;999.90;;;;;;;;;;4986673;28;20204;-63
2023/09/29 04:06:39;;;;;;;1999.90;999.90;;;;;;;;;;4986501;28;20707;-69
2023/09/29 04:09:06;;;;;;;1999.90;999.90;;;;;;;;;;4986248;28;20661;-67
2023/09/29 04:11:33;;;;;;;1999.90;999.90;;;;;;;;;;4986543;28;20213;-65
2023/09/29 04:14:01;;;;;;;1999.90;999.90;;;;;;;;;;4986775;28;20193;-65
2023/09/29 04:16:29;;;;;;;1999.90;999.90;;;;;;;;;;4986579;28;20982;-65
2023/09/29 04:18:57;;;;;;;1999.90;999.90;;;;;;;;;;4986811;28;20252;-65
2023/09/29 04:21:24;;;;;;;1999.90;999.90;;;;;;;;;;4986753;28;20201;-64
2023/09/29 04:23:51;;;;;;;1999.90;999.90;;;;;;;;;;4985088;28;20208;-67
2023/09/29 04:26:20;;;;;;;1999.90;999.90;;;;;;;;;;4987082;28;20204;-60
2023/09/29 04:28:47;;;;;;;1999.90;999.90;;;;;;;;;;4985446;28;20197;-62
2023/09/29 04:31:15;;;;;;;1999.90;999.90;;;;;;;;;;4985664;28;20668;-69
2023/09/29 04:33:43;;;;;;;1999.90;999.90;;;;;;;;;;4985618;28;20200;-63
2023/09/29 04:36:11;;;;;;;1999.90;999.90;;;;;;;;;;4986538;28;20204;-69
2023/09/29 04:38:40;;;;;;;1999.90;999.90;;;;;;;;;;4982941;28;20201;-70
2023/09/29 04:47:20;;;;;;;1999.90;999.90;;;;;;;;;;5049163;22;20236;-68
2023/09/29 04:49:49;;;;;;;1999.90;999.90;;;;;;;;;;5023959;28;20220;-63
2023/09/29 04:52:16;;;;;;;1999.90;999.90;;;;;;;;;;5027254;28;20219;-62
2023/09/29 04:54:43;;;;;;;1999.90;999.90;;;;;;;;;;5026299;28;20199;-65
2023/09/29 04:57:11;;;;;;;1999.90;999.90;;;;;;;;;;5027163;28;20207;-64
2023/09/29 04:59:38;;;;;;;1999.90;999.90;;;;;;;;;;5026283;28;20210;-63
2023/09/29 05:02:06;;;;;;;1999.90;999.90;;;;;;;;;;5025978;28;20293;-62
2023/09/29 05:04:33;;;;;;;1999.90;999.90;;;;;;;;;;5022903;28;20731;-67
2023/09/29 05:07:02;;;;;;;1999.90;999.90;;;;;;;;;;5026418;28;20201;-67
2023/09/29 05:09:29;;;;;;;1999.90;999.90;;;;;;;;;;5026844;28;20200;-64
2023/09/29 05:11:57;;;;;;;1999.90;999.90;;;;;;;;;;5025544;28;20693;-68
2023/09/29 05:14:25;;;;;;;1999.90;999.90;;;;;;;;;;5026807;28;20204;-69
2023/09/29 05:16:54;;;;;;;1999.90;999.90;;;;;;;;;;5025897;28;20185;-71
2023/09/29 05:19:21;;;;;;;1999.90;999.90;;;;;;;;;;5026065;28;20531;-66
2023/09/29 05:21:48;;;;;;;1999.90;999.90;;;;;;;;;;5006827;28;20501;-70
2023/09/29 05:24:18;;;;;;;1999.90;999.90;;;;;;;;;;5011118;28;20196;-68
2023/09/29 05:26:45;;;;;;;1999.90;999.90;;;;;;;;;;5018651;28;20192;-64
2023/09/29 05:29:13;;;;;;;1999.90;999.90;;;;;;;;;;5006138;28;21049;-65
2023/09/29 05:31:40;;;;;;;1999.90;999.90;;;;;;;;;;5007533;28;20224;-65
2023/09/29 05:34:07;;;;;;;1999.90;999.90;;;;;;;;;;5014001;28;20193;-68
2023/09/29 05:36:35;;;;;;;1999.90;999.90;;;;;;;;;;5026761;28;20209;-65
2023/09/29 05:39:03;;;;;;;1999.90;999.90;;;;;;;;;;5026778;28;20278;-69
2023/09/29 05:41:32;;;;;;;1999.90;999.90;;;;;;;;;;5029716;28;20372;-64
2023/09/29 05:44:00;;;;;;;1999.90;999.90;;;;;;;;;;5030468;28;20279;-68
2023/09/29 05:46:27;;;;;;;1999.90;999.90;;;;;;;;;;5028967;28;20208;-70
2023/09/29 05:48:55;;;;;;;1999.90;999.90;;;;;;;;;;5029653;28;20229;-66
2023/09/29 05:51:22;;;;;;;1999.90;999.90;;;;;;;;;;5027867;28;20198;-67
2023/09/29 05:53:49;;;;;;;1999.90;999.90;;;;;;;;;;5028311;28;20227;-62
2023/09/29 05:56:17;;;;;;;1999.90;999.90;;;;;;;;;;5028361;28;20188;-63
2023/09/29 05:58:45;;;;;;;1999.90;999.90;;;;;;;;;;5027928;28;20204;-65
2023/09/29 06:01:14;;;;;;;1999.90;999.90;;;;;;;;;;5029219;28;20676;-64
2023/09/29 06:03:41;;;;;;;1999.90;999.90;;;;;;;;;;5027593;28;20219;-61
2023/09/29 06:06:09;;;;;;;1999.90;999.90;;;;;;;;;;5027784;28;20207;-60
2023/09/29 06:08:37;;;;;;;1999.90;999.90;;;;;;;;;;5027546;28;20758;-65
2023/09/29 06:11:05;;;;;;;1999.90;999.90;;;;;;;;;;5028970;28;20215;-60
2023/09/29 06:13:33;;;;;;;1999.90;999.90;;;;;;;;;;5027640;28;20244;-60
2023/09/29 06:16:03;;;;;;;1999.90;999.90;;;;;;;;;;5032889;28;20197;-66
2023/09/29 06:18:31;;;;;;;1999.90;999.90;;;;;;;;;;5048235;28;20188;-61
2023/09/29 06:20:58;;;;;;;1999.90;999.90;;;;;;;;;;5045365;28;20203;-63
2023/09/29 06:23:25;;;;;;;1999.90;999.90;;;;;;;;;;5048344;28;20196;-64
2023/09/29 06:25:57;;;;;;;1999.90;999.90;;;;;;;;;;5047064;28;20192;-65
2023/09/29 06:28:24;;;;;;;1999.90;999.90;;;;;;;;;;5048264;28;20256;-62
2023/09/29 06:30:53;;;;;;;1999.90;999.90;;;;;;;;;;5048272;28;20206;-61
2023/09/29 06:33:22;;;;;;;1999.90;999.90;;;;;;;;;;5043327;28;20223;-61
2023/09/29 06:35:49;;;;;;;1999.90;999.90;;;;;;;;;;5028162;28;20211;-63
2023/09/29 06:38:16;;;;;;;1999.90;999.90;;;;;;;;;;5027315;28;20211;-63
2023/09/29 06:40:44;;;;;;;1999.90;999.90;;;;;;;;;;5028481;28;20217;-61
2023/09/29 06:43:11;;;;;;;1999.90;999.90;;;;;;;;;;5026757;28;20289;-62
2023/09/29 06:45:39;;;;;;;1999.90;999.90;;;;;;;;;;5027973;28;20436;-60
2023/09/29 06:48:07;;;;;;;1999.90;999.90;;;;;;;;;;5027736;28;20695;-70
2023/09/29 06:50:35;;;;;;;1999.90;999.90;;;;;;;;;;5026179;28;20226;-63
2023/09/29 06:53:03;;;;;;;1999.90;999.90;;;;;;;;;;5026396;28;20238;-64
2023/09/29 06:55:31;;;;;;;1999.90;999.90;;;;;;;;;;5025412;28;20291;-64
2023/09/29 06:57:59;;;;;;;1999.90;999.90;;;;;;;;;;5027267;28;20275;-66
2023/09/29 07:00:27;;;;;;;1999.90;999.90;;;;;;;;;;5025408;28;20651;-64
2023/09/29 07:02:54;;;;;;;1999.90;999.90;;;;;;;;;;5027057;28;20205;-63
2023/09/29 07:05:23;;;;;;;1999.90;999.90;;;;;;;;;;5025319;28;20207;-64
2023/09/29 07:07:51;;;;;;;1999.90;999.90;;;;;;;;;;5026489;28;20215;-62
2023/09/29 07:10:19;;;;;;;1999.90;999.90;;;;;;;;;;5008826;28;20200;-63
2023/09/29 07:12:46;;;;;;;1999.90;999.90;;;;;;;;;;5025031;28;20223;-66
2023/09/29 07:15:14;;;;;;;1999.90;999.90;;;;;;;;;;5008385;28;20204;-62
2023/09/29 07:17:41;;;;;;;1999.90;999.90;;;;;;;;;;5024916;28;20193;-63
2023/09/29 07:20:09;;;;;;;1999.90;999.90;;;;;;;;;;5026544;28;20181;-69
2023/09/29 07:22:36;;;;;;;1999.90;999.90;;;;;;;;;;5025576;28;20272;-63
2023/09/29 07:25:05;;;;;;;1999.90;999.90;;;;;;;;;;5026033;28;20600;-64
2023/09/29 07:27:33;;;;;;;1999.90;999.90;;;;;;;;;;5025998;28;20279;-66
2023/09/29 07:30:03;;;;;;;1999.90;999.90;;;;;;;;;;5025418;28;20544;-65
2023/09/29 07:32:30;;;;;;;1999.90;999.90;;;;;;;;;;5025966;28;20282;-60
2023/09/29 07:34:57;;;;;;;1999.90;999.90;;;;;;;;;;5024478;28;20917;-61
2023/09/29 07:37:25;;;;;;;1999.90;999.90;;;;;;;;;;5026017;28;20464;-62
2023/09/29 07:39:52;;;;;;;1999.90;999.90;;;;;;;;;;5025580;28;20203;-63
2023/09/29 07:42:20;;;;;;;1999.90;999.90;;;;;;;;;;5026029;28;20192;-60
2023/09/29 07:44:48;;;;;;;1999.90;999.90;;;;;;;;;;5026039;28;20192;-63
2023/09/29 07:47:15;;;;;;;1999.90;999.90;;;;;;;;;;5024821;28;20275;-61
2023/09/29 07:49:42;;;;;;;1999.90;999.90;;;;;;;;;;5025811;28;20610;-66
2023/09/29 07:52:10;;;;;;;1999.90;999.90;;;;;;;;;;5024605;28;20579;-63
2023/09/29 07:54:37;;;;;;;1999.90;999.90;;;;;;;;;;5025631;28;20193;-65
2023/09/29 07:57:04;;;;;;;1999.90;999.90;;;;;;;;;;5024972;28;20203;-68
2023/09/29 07:59:33;;;;;;;1999.90;999.90;;;;;;;;;;5025226;28;20203;-61
2023/09/29 08:02:00;;;;;;;1999.90;999.90;;;;;;;;;;5025966;28;20211;-61
2023/09/29 08:04:28;;;;;;;1999.90;999.90;;;;;;;;;;5023282;28;20212;-65
2023/09/29 08:06:55;;;;;;;1999.90;999.90;;;;;;;;;;5025797;28;20203;-64
2023/09/29 08:09:23;;;;;;;1999.90;999.90;;;;;;;;;;5024315;28;20612;-65
2023/09/29 08:11:50;;;;;;;1999.90;999.90;;;;;;;;;;5025677;28;20201;-64
2023/09/29 08:14:18;;;;;;;1999.90;999.90;;;;;;;;;;4998428;28;20679;-64
2023/09/29 08:16:47;;;;;;;1999.90;999.90;;;;;;;;;;5025349;28;20223;-62
2023/09/29 08:19:14;;;;;;;1999.90;999.90;;;;;;;;;;5025028;28;20193;-61
2023/09/29 08:21:41;;;;;;;1999.90;999.90;;;;;;;;;;5024466;28;20197;-64
2023/09/29 08:24:09;;;;;;;1999.90;999.90;;;;;;;;;;5025229;28;20675;-62
2023/09/29 08:26:37;;;;;;;1999.90;999.90;;;;;;;;;;5005769;28;20212;-61
2023/09/29 08:29:06;;;;;;;1999.90;999.90;;;;;;;;;;5007956;28;20286;-65
2023/09/29 08:31:33;;;;;;;1999.90;999.90;;;;;;;;;;5023606;28;20193;-64
2023/09/29 08:34:02;;;;;;;1999.90;999.90;;;;;;;;;;5024991;28;20224;-63
2023/09/29 08:36:29;;;;;;;1999.90;999.90;;;;;;;;;;5024631;28;20196;-64
2023/09/29 08:38:57;;;;;;;1999.90;999.90;;;;;;;;;;5025002;28;20196;-61
2023/09/29 08:41:28;;;;;;;1999.90;999.90;;;;;;;;;;5025003;28;20598;-69
2023/09/29 08:43:56;;;;;;;1999.90;999.90;;;;;;;;;;5024259;28;20617;-62
2023/09/29 08:46:23;;;;;;;1999.90;999.90;;;;;;;;;;5025401;28;20188;-63
2023/09/29 08:48:52;;;;;;;1999.90;999.90;;;;;;;;;;5023555;28;20296;-66
2023/09/29 08:51:21;;;;;;;1999.90;999.90;;;;;;;;;;5025172;28;20250;-63
2023/09/29 08:53:51;;;;;;;1999.90;999.90;;;;;;;;;;5023885;28;20224;-62
2023/09/29 08:56:18;;;;;;;1999.90;999.90;;;;;;;;;;5024294;28;20192;-67
2023/09/29 08:58:47;;;;;;;1999.90;999.90;;;;;;;;;;5024809;28;20224;-64
2023/09/29 09:01:15;;;;;;;1999.90;999.90;;;;;;;;;;5035870;28;20211;-64
2023/09/29 09:03:42;;;;;;;1999.90;999.90;;;;;;;;;;5044101;28;21060;-63
2023/09/29 09:06:24;;;;;;;1999.90;999.90;;;;;;;;;;5043996;28;20241;-61
2023/09/29 09:08:52;;;;;;;1999.90;999.90;;;;;;;;;;5044450;28;20647;-62
2023/09/29 09:11:19;;;;;;;1999.90;999.90;;;;;;;;;;5045146;28;20226;-62
2023/09/29 09:13:58;;;;;;;1999.90;999.90;;;;;;;;;;5043386;28;20223;-66
2023/09/29 09:16:26;;;;;;;1999.90;999.90;;;;;;;;;;5049070;28;20238;-60
2023/09/29 09:18:54;;;;;;;1999.90;999.90;;;;;;;;;;5046954;28;20202;-60
2023/09/29 09:21:21;;;;;;;1999.90;999.90;;;;;;;;;;5048887;28;20241;-63
2023/09/29 09:23:50;;;;;;;1999.90;999.90;;;;;;;;;;5046759;28;21027;-61
2023/09/29 09:26:19;;;;;;;1999.90;999.90;;;;;;;;;;5048651;28;20200;-61
2023/09/29 09:28:46;;;;;;;1999.90;999.90;;;;;;;;;;5048256;28;20200;-65
2023/09/29 09:31:13;;;;;;;1999.90;999.90;;;;;;;;;;5047739;28;20194;-64
2023/09/29 09:33:41;;;;;;;1999.90;999.90;;;;;;;;;;5042521;28;20787;-62
2023/09/29 09:36:10;;;;;;;1999.90;999.90;;;;;;;;;;5027233;28;20204;-67
2023/09/29 09:38:38;;;;;;;1999.90;999.90;;;;;;;;;;5028421;28;20219;-60
2023/09/29 09:41:09;;;;;;;1999.90;999.90;;;;;;;;;;5027792;28;20552;-68
2023/09/29 09:43:38;;;;;;;1999.90;999.90;;;;;;;;;;5028208;28;20972;-65
2023/09/29 09:46:12;;;;;;;1999.90;999.90;;;;;;;;;;5026705;28;20581;-66
2023/09/29 09:48:49;;;;;;;1999.90;999.90;;;;;;;;;;5026959;28;20463;-65
2023/09/29 09:51:24;;;;;;;1999.90;999.90;;;;;;;;;;5028662;28;20180;-67
2023/09/29 09:53:52;;;;;;;1999.90;999.90;;;;;;;;;;5026975;28;20214;-61
2023/09/29 09:56:26;;;;;;;1999.90;999.90;;;;;;;;;;5028451;28;20278;-63
2023/09/29 09:58:53;;;;;;;1999.90;999.90;;;;;;;;;;5027604;28;20199;-63
2023/09/29 10:01:21;;;;;;;1999.90;999.90;;;;;;;;;;5009460;28;20204;-69
2023/09/29 10:03:49;;;;;;;1999.90;999.90;;;;;;;;;;5027519;28;20250;-66
2023/09/29 10:06:16;;;;;;;1999.90;999.90;;;;;;;;;;5026696;28;20242;-66
2023/09/29 10:08:46;;;;;;;1999.90;999.90;;;;;;;;;;5027921;28;20616;-67
2023/09/29 10:11:14;;;;;;;1999.90;999.90;;;;;;;;;;5026715;28;20200;-64
2023/09/29 10:13:44;;;;;;;1999.90;999.90;;;;;;;;;;5027329;28;20222;-64
2023/09/29 10:16:21;;;;;;;1999.90;999.90;;;;;;;;;;5026905;28;20602;-62
2023/09/29 10:18:55;;;;;;;1999.90;999.90;;;;;;;;;;5026838;28;20181;-65
2023/09/29 10:21:22;;;;;;;1999.90;999.90;;;;;;;;;;5027701;28;20215;-64
2023/09/29 10:23:50;;;;;;;1999.90;999.90;;;;;;;;;;5025995;28;20268;-69
2023/09/29 10:26:20;;;;;;;1999.90;999.90;;;;;;;;;;5027145;28;20204;-66
2023/09/29 10:28:49;;;;;;;1999.90;999.90;;;;;;;;;;5008485;28;20189;-63
2023/09/29 10:31:18;;;;;;;1999.90;999.90;;;;;;;;;;5027296;28;20205;-65
2023/09/29 10:33:47;;;;;;;1999.90;999.90;;;;;;;;;;5026621;28;20937;-64
2023/09/29 10:36:14;;;;;;;1999.90;999.90;;;;;;;;;;5026366;28;21039;-66
2023/09/29 10:38:42;;;;;;;1999.90;999.90;;;;;;;;;;5026055;28;20528;-67
2023/09/29 10:41:09;;;;;;;1999.90;999.90;;;;;;;;;;5025420;28;20258;-65
2023/09/29 10:43:36;;;;;;;1999.90;999.90;;;;;;;;;;5019073;28;20200;-62
2023/09/29 10:46:09;;;;;;;1999.90;999.90;;;;;;;;;;5019973;28;20262;-64
2023/09/29 10:48:45;;;;;;;1999.90;999.90;;;;;;;;;;5020993;28;20225;-71
2023/09/29 10:51:12;;;;;;;1999.90;999.90;;;;;;;;;;5021526;28;20208;-68
2023/09/29 10:53:40;;;;;;;1999.90;999.90;;;;;;;;;;5016535;28;20228;-68
2023/09/29 10:56:09;;;;;;;1999.90;999.90;;;;;;;;;;5017719;28;21768;-62
2023/09/29 10:58:38;;;;;;;1999.90;999.90;;;;;;;;;;5022954;28;20196;-67
2023/09/29 11:01:06;;;;;;;1999.90;999.90;;;;;;;;;;5020259;28;20192;-68
2023/09/29 11:03:35;;;;;;;1999.90;999.90;;;;;;;;;;5013814;28;20231;-66
2023/09/29 11:06:08;;;;;;;1999.90;999.90;;;;;;;;;;5019513;28;20194;-68
2023/09/29 11:08:38;;;;;;;1999.90;999.90;;;;;;;;;;5026045;28;20197;-63
2023/09/29 11:11:08;;;;;;;1999.90;999.90;;;;;;;;;;5025377;28;20201;-66
2023/09/29 11:13:37;;;;;;;1999.90;999.90;;;;;;;;;;5026726;28;20212;-65
2023/09/29 11:16:04;;;;;;;1999.90;999.90;;;;;;;;;;5007855;28;20193;-68
2023/09/29 11:18:33;;;;;;;1999.90;999.90;;;;;;;;;;5031149;28;20219;-61
2023/09/29 11:21:05;;;;;;;1999.90;999.90;;;;;;;;;;5032123;28;20210;-65
2023/09/29 11:23:40;;;;;;;1999.90;999.90;;;;;;;;;;5029322;28;20193;-66
2023/09/29 11:26:10;;;;;;;1999.90;999.90;;;;;;;;;;5027983;28;20250;-61
2023/09/29 11:28:42;;;;;;;1999.90;999.90;;;;;;;;;;5030410;28;20193;-63
2023/09/29 11:31:12;;;;;;;1999.90;999.90;;;;;;;;;;5035183;28;20177;-69
2023/09/29 11:33:39;;;;;;;1999.90;999.90;;;;;;;;;;5008769;28;20587;-70
2023/09/29 11:36:15;;;;;;;1999.90;999.90;;;;;;;;;;5026524;28;20999;-69
2023/09/29 11:38:42;;;;;;;1999.90;999.90;;;;;;;;;;5008521;28;20640;-70
2023/09/29 11:41:10;;;;;;;1999.90;999.90;;;;;;;;;;5025099;28;20192;-67
2023/09/29 11:43:40;;;;;;;1999.90;999.90;;;;;;;;;;5026179;28;20212;-67
2023/09/29 11:46:07;;;;;;;1999.90;999.90;;;;;;;;;;5024879;28;20610;-69
2023/09/29 11:48:35;;;;;;;1999.90;999.90;;;;;;;;;;5026235;28;20699;-62
2023/09/29 11:51:03;;;;;;;1999.90;999.90;;;;;;;;;;5025110;28;20192;-62
2023/09/29 11:53:31;;;;;;;1999.90;999.90;;;;;;;;;;5026433;28;20682;-71
2023/09/29 11:55:59;;;;;;;1999.90;999.90;;;;;;;;;;5025889;28;20196;-63
2023/09/29 11:58:27;;;;;;;1999.90;999.90;;;;;;;;;;5007152;28;20325;-62
2023/09/29 12:00:54;;;;;;;1999.90;999.90;;;;;;;;;;5025266;28;20200;-62
2023/09/29 12:03:23;;;;;;;1999.90;999.90;;;;;;;;;;5024187;28;20207;-61
2023/09/29 12:05:51;;;;;;;1999.90;999.90;;;;;;;;;;5025984;28;20671;-61
2023/09/29 12:08:19;;;;;;;1999.90;999.90;;;;;;;;;;5021293;28;20205;-63
2023/09/29 12:10:48;;;;;;;1999.90;999.90;;;;;;;;;;5000048;28;20218;-61
2023/09/29 12:13:16;;;;;;;1999.90;999.90;;;;;;;;;;5010751;28;20197;-61
2023/09/29 12:15:43;;;;;;;1999.90;999.90;;;;;;;;;;5017788;28;20223;-61
2023/09/29 12:18:11;;;;;;;1999.90;999.90;;;;;;;;;;4990250;28;20681;-61
2023/09/29 12:20:38;;;;;;;1999.90;999.90;;;;;;;;;;5021141;28;20204;-61
2023/09/29 12:23:06;;;;;;;1999.90;999.90;;;;;;;;;;5022466;28;20283;-61
2023/09/29 12:25:34;;;;;;;1999.90;999.90;;;;;;;;;;5019228;28;20204;-67
2023/09/29 12:28:03;;;;;;;1999.90;999.90;;;;;;;;;;5020500;28;20192;-63
2023/09/29 12:30:30;;;;;;;1999.90;999.90;;;;;;;;;;5019272;28;20279;-65
2023/09/29 12:32:58;;;;;;;1999.90;999.90;;;;;;;;;;5020681;28;21059;-62
2023/09/29 12:35:25;;;;;;;1999.90;999.90;;;;;;;;;;5019837;28;20718;-62
2023/09/29 12:37:53;;;;;;;1999.90;999.90;;;;;;;;;;5020461;28;20196;-65
2023/09/29 12:40:20;;;;;;;1999.90;999.90;;;;;;;;;;5024959;28;20663;-61
2023/09/29 12:42:49;;;;;;;1999.90;999.90;;;;;;;;;;5023510;28;20200;-61
2023/09/29 12:45:20;;;;;;;1999.90;999.90;;;;;;;;;;5024492;28;20215;-63
2023/09/29 12:47:48;;;;;;;1999.90;999.90;;;;;;;;;;5024518;28;20240;-66
2023/09/29 12:50:15;;;;;;;1999.90;999.90;;;;;;;;;;5003687;28;20196;-61
2023/09/29 12:52:44;;;;;;;1999.90;999.90;;;;;;;;;;5020062;28;20204;-64
2023/09/29 12:55:14;;;;;;;1999.90;999.90;;;;;;;;;;5023385;28;20304;-63
2023/09/29 12:57:43;;;;;;;1999.90;999.90;;;;;;;;;;5024792;28;20295;-61
2023/09/29 13:00:17;;;;;;;1999.90;999.90;;;;;;;;;;5005498;28;20192;-61
2023/09/29 13:02:47;;;;;;;1999.90;999.90;;;;;;;;;;5024426;28;20192;-61
2023/09/29 13:05:14;;;;;;;1999.90;999.90;;;;;;;;;;5006595;28;20261;-62
2023/09/29 13:07:42;;;;;;;1999.90;999.90;;;;;;;;;;5023934;28;20196;-62
2023/09/29 13:10:10;;;;;;;1999.90;999.90;;;;;;;;;;5024617;28;20273;-64
2023/09/29 13:12:38;;;;;;;1999.90;999.90;;;;;;;;;;5023896;28;20254;-62
2023/09/29 13:15:06;;;;;;;1999.90;999.90;;;;;;;;;;5024535;28;20224;-67
2023/09/29 13:17:33;;;;;;;1999.90;999.90;;;;;;;;;;5023922;28;20200;-62
2023/09/29 13:20:02;;;;;;;1999.90;999.90;;;;;;;;;;5025003;28;20230;-62
2023/09/29 13:22:29;;;;;;;1999.90;999.90;;;;;;;;;;5023697;28;20271;-64
2023/09/29 13:24:57;;;;;;;1999.90;999.90;;;;;;;;;;5024383;28;20192;-62
2023/09/29 13:27:24;;;;;;;1999.90;999.90;;;;;;;;;;5024307;28;20200;-69
2023/09/29 13:29:51;;;;;;;1999.90;999.90;;;;;;;;;;5023396;28;20207;-67
2023/09/29 13:32:19;;;;;;;1999.90;999.90;;;;;;;;;;5024894;28;20209;-65
2023/09/29 13:34:46;;;;;;;1999.90;999.90;;;;;;;;;;5022734;28;20223;-67
2023/09/29 13:37:17;;;;;;;1999.90;999.90;;;;;;;;;;5019942;28;20218;-65
2023/09/29 13:39:45;;;;;;;1999.90;999.90;;;;;;;;;;5016651;28;20291;-66
2023/09/29 13:42:12;;;;;;;1999.90;999.90;;;;;;;;;;5017609;28;20752;-66
2023/09/29 13:44:39;;;;;;;1999.90;999.90;;;;;;;;;;5013159;28;20201;-66
2023/09/29 13:47:07;;;;;;;1999.90;999.90;;;;;;;;;;5015538;28;20196;-65
2023/09/29 13:49:34;;;;;;;1999.90;999.90;;;;;;;;;;5019356;28;20232;-68
2023/09/29 13:52:02;;;;;;;1999.90;999.90;;;;;;;;;;5023248;28;20196;-63
2023/09/29 13:54:31;;;;;;;1999.90;999.90;;;;;;;;;;5014956;28;20217;-70